Bunola, PA (15020)

19:19 EST le 10 décembre 2016 (GMT -0500)
Forward Township | | Change Station

Alt. 1171 ft 40.24 °N, 79.91 °W | Updated 18 seconds ago

Nuageux
Nuageux
22.8 ° F
Paraît 23 ° F
N
0.0
Vent Variable Vent de OSO
Gusts 0.0 mph

Aujourd'hui
Haut(e) -- | Bas -- ° F
--% Risque de précip.
Hier
Haut(e) -- | Bas -- ° F
Precip. -- pouce
Pression 30.51 pouce
Visibilité 10.0 Miles terrestres
Nuages Ciel dégagé
Refroidissement éolien 23 ° F
Point de rosée 11 ° F
Humidité 61%
Précipitations 0.00 pouce
Profondeur de la couche neigeuse Non disponible.
7:31 AM 4:53 PM
Lune gibbeuse croissante, 87% visible
METAR KAGC 102353Z 24004KT 10SM CLR M06/M11 A3044 RMK AO2 SLP332 60000 T10561111 11033 21056 50003
Pression 30.51 pouce
Visibilité 10.0 Miles terrestres
Nuages Ciel dégagé
Refroidissement éolien 23 ° F
Point de rosée 11 ° F
Humidité 61%
Précipitations 0.00 pouce
Profondeur de la couche neigeuse Non disponible.
7:31 AM 4:53 PM
Lune gibbeuse croissante, 87% visible
METAR KAGC 102353Z 24004KT 10SM CLR M06/M11 A3044 RMK AO2 SLP332 60000 T10561111 11033 21056 50003

10-Day Weather Forecast

Almanac

Astronomie

Dec. 10, 2016 Lever Coucher
Temps réel
Crépuscule civil
Crépuscule nautique
Crépuscule astronomique
Lune
Durée de lumière visible
Longueur du jour
Tomorrow will be .
, % of the Moon is Illuminated

Extrêmes aujourd'hui

State Highs State Lows

Community

WunderPhotos

Upload Photos

1,956,682 Photos téléchargées !

WunderBlog® & News

Nearby

Qualité de l'air

  Qualité de l'air Indice de la qualité de l'air Polluant
Not available.

Épaisseur de neige

Station Depth Altitude

Activité sismique

Ville Distance Mag. Time & Date
Minimum magnitude displayed is 2.5.

Températures des eaux côtières

Lieu Température

Stations

Stations météo à proximité

Emplacement de la station Température Refroidissement éolien Point de rosée Humidité Vent Precip. Alt. Mise à jour Type
                   

Watches & Warnings

There are currently no watches in effect.